AirNav   Free Bose QuietComfort 20
 
 911 users online  

PA32 St Catherine Medical Center Heliport
Ashland, Pennsylvania, USA

GOING TO ASHLAND?


FAA INFORMATION EFFECTIVE 05 DECEMBER 2019

Location

FAA Identifier: PA32
Lat/Long: 40-46-09.7900N 076-19-53.0100W
40-46.163167N 076-19.883500W
40.7693861,-76.3313917
(estimated)
Elevation: 1060 ft. / 323 m (estimated)
Variation: 11W (1985)
From city: 1 mile S of ASHLAND, PA
Time zone: UTC -5 (UTC -4 during Daylight Saving Time)
Zip code: 17921

Heliport Operations

Heliport use: Private use, MEDICAL USE.
Activation date: 10/1974
Control tower: no
ARTCC: NEW YORK CENTER
FSS: WILLIAMSPORT FLIGHT SERVICE STATION
Attendance: UNATNDD
Wind indicator: yes
Segmented circle: no
Lights: SS-SR

Heliport Communications

WX AWOS-3 at ZER (4 nm SW): 127.575 (570-544-2778)
WX AWOS-3 at N79 (11 nm W): 119.175 (570-672-0389)
WX AWOS-3 at 79PN (17 nm NW): 118.075 (570-271-8192)

Nearby radio navigation aids

VOR radial/distance  VOR name  Freq  Var
RAVr054/17.8RAVINE VORTAC114.6011W
MIPr144/21.5MILTON VORTAC109.2009W
SEGr101/25.1SELINSGROVE VOR/DME110.4008W
ETXr300/31.6EAST TEXAS VOR/DME110.2009W
LRPr006/39.0LANCASTER VOR/DME117.3009W
FQMr159/39.6WILLIAMSPORT VOR/DME114.4009W
FJCr284/39.9ALLENTOWN VORTAC117.5010W

 
NDB name  Hdg/Dist  Freq  Var  ID
BELLGROVE037/22.432810WBZJ -... --.. .---

Heliport Services

Airframe service: NONE
Powerplant service: NONE

Runway Information

Helipad H1

Dimensions: 75 x 75 ft. / 23 x 23 m
Surface: asphalt
Runway edge lights: PERI
Latitude: 40-46.163167N
Longitude: 076-19.883500W
Elevation: 1060.0 ft.
Traffic pattern: leftleft

Heliport Ownership and Management from official FAA records

Ownership: Publicly-owned
Owner: SAINT CATHERINE HOSPITAL OF PA, LLC
ROUTE 61
ASHLAND, PA 17921
Phone 570-875-2000
Manager: DANIEL A. COLON, PRES / CEO
101 BROAD ST.
ASHLAND, PA 19721
Phone 570-875-5818

Additional Remarks

A52-H1 LGTD BLDGS; CHIMNEY STACK & PLINES IN VICINITY.
NO NIGHT OPNS PERMITTED WITHOUT PRIOR ORIENTATION.
FOR CD CTC HARRISBURG APCH AT 800-932-0712.

Instrument Procedures

There are no published instrument procedures at PA32.

Some nearby airports with instrument procedures:

KZER - Schuylkill County/Joe Zerbey Airport (4 nm SW)
N79 - Northumberland County Airport (11 nm W)
N13 - Bloomsburg Municipal Airport (14 nm N)
74N - Bendigo Airport (16 nm SW)
8N8 - Danville Airport (18 nm NW)
 
Loc | Ops | Rwys | IFR | FBO | Links
Com | Nav | Svcs | Stats | Notes
Area around PA32 (St Catherine Medical Center Heliport)
 
Road maps at: MapQuest Bing Google
 
Aerial photo
No photo
 
Sectional chart

 
Airport distance calculator
Flying to St Catherine Medical Center Heliport? Find the distance to fly.

From to PA32

Sunrise and sunset
Times for 12-Dec-2019
 Local
(UTC-5)
 Zulu
(UTC)
Morning civil twilight06:5011:50
Sunrise07:2112:21
Sunset16:3721:37
Evening civil twilight17:0822:08

Current date and time
Zulu (UTC)  13-Dec-2019 00:35:17
Local (UTC-5)  12-Dec-2019 19:35:17
 
METAR
KHZL 
20nm NE 
130019Z AUTO 13005KT 10SM CLR M02/M11 A3056 RMK AO2
KMUI 
24nm SW 
122356Z 00000KT 10SM BKN250 M01/M09 A3062 RMK AO2A SLP380 T10151094 10015 21021 55005
KSEG 
24nm W 
122353Z AUTO 18004KT 10SM CLR M01/M09 A3060 RMK AO2 SLP369 T10111089 10011 21011 55007
K22N 
26nm E 
130015Z AUTO 00000KT 10SM CLR M03/M05 A3063 RMK AO2
KRDG 
29nm SE 
122354Z 17006KT 10SM CLR 00/M08 A3063 RMK AO2 SLP382 T00001078 10028 20000 55004
KIPT 
39nm NW 
122354Z 07008G15KT 10SM CLR M01/M11 A3058 RMK AO2 SLP363 T10061106 10011 21006 55009
KLNS 
39nm S 
122353Z 18005KT 10SM CLR M01/M09 A3063 RMK AO2 SLP379 T10111089 10022 21011 56004
KMDT 
40nm SW 
122356Z 16009KT 10SM OVC200 01/M08 A3062 RMK AO2 SLP373 T00111078 10028 21011 55005
TAF
KMUI 
24nm SW 
121900Z 1219/1401 14006KT 9999 BKN250 QNH3058INS BECMG 1304/1305 14006KT 9999 BKN015 OVC025 QNH3043INS TEMPO 1309/1312 -FZDZ OVC009 660004 BECMG 1311/1312 10006KT 8000 -RA BR OVC009 QNH3029INS BECMG 1316/1317 06006KT 4800 -RA BR OVC006 650808 QNH3006INS BECMG 1323/1324 08006KT 3200 -RA BR OVC005 QNH3002INS TX01/1319Z TNM03/1302Z LAST NO AMDS AFT 1305 NEXT 1311
NOTAMs
Click for the latest NOTAMs
NOTAMs are issued by the DoD/FAA and will open in a separate window not controlled by AirNav.

 

 
 

Would you like to see your business listed on this page?

 If your business provides an interesting product or service to pilots, flight crews, aircraft, or users of the St Catherine Medical Center Heliport, you should consider listing it here.  To start the listing process, click on the button below
 
Add a business
 

Other Pages about St Catherine Medical Center Heliport

Update a link
 
Copyright © AirNav, LLC. All rights reserved. Privacy Policy  Contact